Time;durP1;ratioP1;P1;durP2;ratioP2;P2;SDS_P1;SDS_P2;PMS_P1;PMS_P2;Temp;Humidity;BMP_temperature;BMP_pressure;BME280_temperature;BME280_humidity;BME280_pressure;Samples;Min_cycle;Max_cycle;Signal;HPM_P1;HPM_P2
2021/08/15 00:00:13;;;;;;;12.00;9.50;;;21.20;63.10;;;;;;5054355;28;20453;-72
2021/08/15 00:02:40;;;;;;;21.90;10.87;;;21.10;63.00;;;;;;5054490;28;20477;-72
2021/08/15 00:05:08;;;;;;;11.67;10.13;;;21.10;63.20;;;;;;5054464;28;20452;-72
2021/08/15 00:07:37;;;;;;;12.97;10.70;;;21.00;63.30;;;;;;5054713;28;20474;-72
2021/08/15 00:10:04;;;;;;;19.40;11.53;;;21.00;63.50;;;;;;5054361;28;20476;-72
2021/08/15 00:12:31;;;;;;;29.27;10.83;;;21.00;63.70;;;;;;5054326;28;20453;-72
2021/08/15 00:14:57;;;;;;;16.63;10.57;;;21.00;63.70;;;;;;5054342;28;20449;-72
2021/08/15 00:17:24;;;;;;;22.33;10.80;;;20.90;63.70;;;;;;5053912;28;21015;-72
2021/08/15 00:19:51;;;;;;;20.10;10.63;;;20.90;64.20;;;;;;5054270;28;20446;-72
2021/08/15 00:22:18;;;;;;;15.80;9.90;;;20.90;64.20;;;;;;5054189;28;20445;-72
2021/08/15 00:24:46;;;;;;;13.10;10.40;;;20.80;64.20;;;;;;5054124;28;20453;-72
2021/08/15 00:27:13;;;;;;;12.63;9.63;;;20.80;64.40;;;;;;5053978;28;20877;-72
2021/08/15 00:29:40;;;;;;;30.13;11.43;;;20.80;64.40;;;;;;5054095;28;20449;-72
2021/08/15 00:32:07;;;;;;;10.90;9.47;;;20.70;64.50;;;;;;5054199;28;20492;-72
2021/08/15 00:34:34;;;;;;;17.87;11.37;;;20.70;64.60;;;;;;5055791;28;20449;-72
2021/08/15 00:37:01;;;;;;;20.63;10.90;;;20.70;64.80;;;;;;5055381;28;20465;-72
2021/08/15 00:39:27;;;;;;;11.90;9.83;;;20.60;64.90;;;;;;5053923;28;20450;-72
2021/08/15 00:41:55;;;;;;;16.30;10.63;;;20.60;65.00;;;;;;5053834;28;20931;-72
2021/08/15 00:44:22;;;;;;;19.70;10.53;;;20.60;65.20;;;;;;5053867;28;20456;-72
2021/08/15 00:46:50;;;;;;;17.30;10.93;;;20.50;65.00;;;;;;5053221;28;20470;-72
2021/08/15 00:49:17;;;;;;;15.97;10.47;;;20.50;65.30;;;;;;5053759;28;20449;-72
2021/08/15 00:51:43;;;;;;;14.70;10.47;;;20.50;65.50;;;;;;5053672;28;20512;-72
2021/08/15 00:54:10;;;;;;;17.90;10.30;;;20.50;65.70;;;;;;5053642;28;20442;-72
2021/08/15 00:56:37;;;;;;;15.80;10.73;;;20.50;66.00;;;;;;5053178;28;20967;-72
2021/08/15 00:59:07;;;;;;;18.60;9.97;;;20.40;66.10;;;;;;5053110;28;20840;-72
2021/08/15 01:01:35;;;;;;;13.00;9.43;;;20.40;66.40;;;;;;5053610;28;20433;-72
2021/08/15 01:04:03;;;;;;;17.23;9.40;;;20.40;66.60;;;;;;5053245;28;20452;-72
2021/08/15 01:06:32;;;;;;;16.77;10.00;;;20.50;67.20;;;;;;5053469;28;20472;-72
2021/08/15 01:08:59;;;;;;;16.83;9.93;;;20.50;67.50;;;;;;5053123;28;20453;-72
2021/08/15 01:11:26;;;;;;;23.40;10.80;;;20.50;68.10;;;;;;5053359;28;20484;-72
2021/08/15 01:13:52;;;;;;;20.93;11.03;;;20.50;68.30;;;;;;5053376;28;20499;-72
2021/08/15 01:16:20;;;;;;;21.40;10.80;;;20.50;68.60;;;;;;5053049;28;20842;-72
2021/08/15 01:18:47;;;;;;;20.60;11.40;;;20.50;68.90;;;;;;5052951;28;20954;-72
2021/08/15 01:21:15;;;;;;;16.50;10.70;;;20.40;69.20;;;;;;5053304;28;20445;-72
2021/08/15 01:23:44;;;;;;;17.67;10.87;;;20.40;69.70;;;;;;5053255;28;20445;-72
2021/08/15 01:26:12;;;;;;;20.93;11.97;;;20.40;70.20;;;;;;5053223;28;20450;-72
2021/08/15 01:28:40;;;;;;;15.80;11.63;;;20.30;70.40;;;;;;5053258;28;20854;-72
2021/08/15 01:31:09;;;;;;;15.87;10.63;;;20.30;70.90;;;;;;5053142;28;20476;-72
2021/08/15 01:33:39;;;;;;;14.40;9.67;;;20.30;71.30;;;;;;5052899;28;20930;-72
2021/08/15 01:36:07;;;;;;;18.27;9.77;;;20.30;71.20;;;;;;5053175;28;20438;-72
2021/08/15 01:38:36;;;;;;;15.60;10.57;;;20.30;71.30;;;;;;5053241;28;20448;-72
2021/08/15 01:41:04;;;;;;;17.03;10.10;;;20.20;71.20;;;;;;5053187;28;20441;-72
2021/08/15 01:43:33;;;;;;;18.97;10.80;;;20.20;71.40;;;;;;5053138;28;20465;-72
2021/08/15 01:46:02;;;;;;;14.87;9.87;;;20.20;71.50;;;;;;5053011;28;21010;-72
2021/08/15 01:48:29;;;;;;;17.00;9.60;;;20.20;71.60;;;;;;5053064;28;20441;-72
2021/08/15 01:50:55;;;;;;;15.87;10.47;;;20.20;71.90;;;;;;5052662;28;21025;-72
2021/08/15 01:53:24;;;;;;;22.60;9.40;;;20.20;72.00;;;;;;5053008;28;20445;-72
2021/08/15 01:55:50;;;;;;;14.63;9.03;;;20.20;72.00;;;;;;5053003;28;20523;-72
2021/08/15 01:58:17;;;;;;;20.53;9.57;;;20.20;72.00;;;;;;5052906;28;20465;-72
2021/08/15 02:00:45;;;;;;;21.20;10.20;;;20.30;72.30;;;;;;5056152;28;20456;-72
2021/08/15 02:03:14;;;;;;;12.63;8.97;;;20.30;71.90;;;;;;5056786;28;20454;-72
2021/08/15 02:05:43;;;;;;;19.10;9.60;;;20.20;71.80;;;;;;5056803;28;20449;-72
2021/08/15 02:08:10;;;;;;;15.37;8.80;;;20.20;72.30;;;;;;5056585;28;20465;-71
2021/08/15 02:10:37;;;;;;;15.20;9.90;;;20.20;72.60;;;;;;5056547;28;20843;-71
2021/08/15 02:13:06;;;;;;;15.47;8.43;;;20.10;72.50;;;;;;5056227;28;20954;-71
2021/08/15 02:15:33;;;;;;;13.70;9.50;;;20.10;73.50;;;;;;5056495;28;20449;-71
2021/08/15 02:18:01;;;;;;;18.43;10.50;;;20.10;72.90;;;;;;5056119;28;20463;-72
2021/08/15 02:20:31;;;;;;;15.60;9.60;;;20.00;72.80;;;;;;5056422;28;20445;-72
2021/08/15 02:22:58;;;;;;;14.87;10.07;;;20.00;73.30;;;;;;5056421;28;20437;-72
2021/08/15 02:25:25;;;;;;;18.30;9.83;;;20.00;73.30;;;;;;5055982;28;20795;-72
2021/08/15 02:27:53;;;;;;;13.33;9.73;;;20.00;73.40;;;;;;5056232;28;20461;-72
2021/08/15 02:30:22;;;;;;;12.63;8.50;;;20.00;73.30;;;;;;5056265;28;20468;-72
2021/08/15 02:32:49;;;;;;;15.20;10.17;;;20.00;73.50;;;;;;5056154;28;20484;-71
2021/08/15 02:35:16;;;;;;;18.20;10.10;;;20.00;73.30;;;;;;5055945;28;20950;-71
2021/08/15 02:37:46;;;;;;;19.90;9.80;;;20.00;73.40;;;;;;5056057;28;20466;-72
2021/08/15 02:40:15;;;;;;;18.77;8.93;;;19.90;73.60;;;;;;5056925;28;20450;-72
2021/08/15 02:42:43;;;;;;;10.50;9.00;;;19.90;73.50;;;;;;5056050;28;20442;-72
2021/08/15 02:45:12;;;;;;;14.60;9.43;;;19.90;73.40;;;;;;5056003;28;20449;-73
2021/08/15 02:47:39;;;;;;;12.53;8.97;;;19.90;73.00;;;;;;5055909;28;20465;-72
2021/08/15 02:50:07;;;;;;;17.27;9.60;;;19.90;73.00;;;;;;5055934;28;20503;-72
2021/08/15 02:52:34;;;;;;;11.77;8.90;;;19.90;72.90;;;;;;5055789;28;20474;-72
2021/08/15 02:55:03;;;;;;;11.83;8.00;;;19.90;72.70;;;;;;5055820;28;20450;-72
2021/08/15 02:57:29;;;;;;;10.93;8.00;;;19.90;72.70;;;;;;5055693;28;20476;-72
2021/08/15 02:59:56;;;;;;;10.90;8.73;;;19.90;72.50;;;;;;5055945;28;20453;-72
2021/08/15 03:02:24;;;;;;;13.73;8.60;;;19.90;72.40;;;;;;5055775;28;20488;-72
2021/08/15 03:04:51;;;;;;;12.20;7.83;;;19.90;72.40;;;;;;5055980;28;20442;-72
2021/08/15 03:07:18;;;;;;;14.67;9.60;;;19.90;72.40;;;;;;5055202;28;20849;-72
2021/08/15 03:09:46;;;;;;;13.23;8.73;;;19.90;72.40;;;;;;5055031;28;20477;-72
2021/08/15 03:12:14;;;;;;;12.07;8.17;;;19.90;73.20;;;;;;5055439;28;20504;-72
2021/08/15 03:14:41;;;;;;;12.37;8.13;;;19.80;72.30;;;;;;5055478;28;20445;-71
2021/08/15 03:17:09;;;;;;;11.53;8.47;;;19.80;72.60;;;;;;5055260;28;20480;-72
2021/08/15 03:19:36;;;;;;;12.03;8.47;;;19.70;72.50;;;;;;5055067;28;20940;-72
2021/08/15 03:22:04;;;;;;;11.60;9.10;;;19.70;72.70;;;;;;5055390;28;20445;-72
2021/08/15 03:24:30;;;;;;;12.93;8.30;;;19.60;73.00;;;;;;5055263;28;20540;-71
2021/08/15 03:26:57;;;;;;;12.13;7.87;;;19.60;73.20;;;;;;5055111;28;20461;-72
2021/08/15 03:29:26;;;;;;;10.07;7.63;;;19.60;73.50;;;;;;5055301;28;20446;-72
2021/08/15 03:31:52;;;;;;;7.93;6.80;;;19.50;73.50;;;;;;5055172;28;20482;-72
2021/08/15 03:34:19;;;;;;;14.40;8.10;;;19.50;73.50;;;;;;5055094;28;20452;-71
2021/08/15 03:36:47;;;;;;;9.17;7.17;;;19.50;73.50;;;;;;5055157;28;20461;-72
2021/08/15 03:39:14;;;;;;;11.77;8.00;;;19.50;73.40;;;;;;5054921;28;20446;-71
2021/08/15 03:41:41;;;;;;;10.43;7.67;;;19.50;73.30;;;;;;5054869;28;20449;-71
2021/08/15 03:44:08;;;;;;;13.27;7.63;;;19.50;73.60;;;;;;5054875;28;20457;-71
2021/08/15 03:46:36;;;;;;;13.23;6.80;;;19.50;74.00;;;;;;5054710;28;20472;-72
2021/08/15 03:49:04;;;;;;;13.00;7.23;;;19.50;73.50;;;;;;5054743;28;20445;-71
2021/08/15 03:51:30;;;;;;;15.20;7.73;;;19.40;73.50;;;;;;5054621;28;20481;-71
2021/08/15 03:53:57;;;;;;;11.00;6.67;;;19.50;73.60;;;;;;5054626;28;20901;-71
2021/08/15 03:56:24;;;;;;;9.50;6.37;;;19.50;73.60;;;;;;5054566;28;20453;-72
2021/08/15 03:58:50;;;;;;;9.90;6.20;;;19.50;73.40;;;;;;5054397;28;20445;-71
2021/08/15 04:01:18;;;;;;;9.77;7.03;;;19.50;73.60;;;;;;5054580;28;20430;-71
2021/08/15 04:03:46;;;;;;;10.50;7.00;;;19.50;73.70;;;;;;5054200;28;20445;-71
2021/08/15 04:06:20;;;;;;;10.90;6.97;;;19.50;73.90;;;;;;5054378;28;20449;-71
2021/08/15 04:08:47;;;;;;;12.20;7.17;;;19.60;74.20;;;;;;5054471;28;20421;-71
2021/08/15 04:11:14;;;;;;;11.10;6.70;;;19.60;74.10;;;;;;5054312;28;20426;-72
2021/08/15 04:13:41;;;;;;;15.57;6.70;;;19.60;74.40;;;;;;5054282;28;20826;-71
2021/08/15 04:16:08;;;;;;;8.10;6.03;;;19.60;74.60;;;;;;5054398;28;20446;-72
2021/08/15 04:18:34;;;;;;;9.70;7.37;;;19.50;74.50;;;;;;5054245;28;20461;-72
2021/08/15 04:21:03;;;;;;;10.70;6.70;;;19.50;74.50;;;;;;5053625;28;20944;-71
2021/08/15 04:23:31;;;;;;;8.20;6.30;;;19.60;74.40;;;;;;5053589;28;20449;-71
2021/08/15 04:25:57;;;;;;;10.87;6.10;;;19.50;74.40;;;;;;5054103;28;20448;-71
2021/08/15 04:28:24;;;;;;;11.67;7.10;;;19.50;74.30;;;;;;5053801;28;20893;-72
2021/08/15 04:30:51;;;;;;;9.83;6.50;;;19.50;74.70;;;;;;5053736;28;20444;-72
2021/08/15 04:33:20;;;;;;;10.20;5.97;;;19.50;74.90;;;;;;5053916;28;20485;-72
2021/08/15 04:35:47;;;;;;;8.70;6.70;;;19.50;74.90;;;;;;5053607;28;20485;-71
2021/08/15 04:38:15;;;;;;;9.80;6.50;;;19.50;75.00;;;;;;5053782;28;20473;-71
2021/08/15 04:40:41;;;;;;;10.10;6.53;;;19.50;74.80;;;;;;5053521;28;20997;-71
2021/08/15 04:43:09;;;;;;;8.13;5.73;;;19.40;74.80;;;;;;5053897;28;20438;-71
2021/08/15 04:45:37;;;;;;;7.80;5.67;;;19.30;75.00;;;;;;5054035;28;20489;-71
2021/08/15 04:48:04;;;;;;;9.83;6.03;;;19.40;75.40;;;;;;5053726;28;20473;-71
2021/08/15 04:50:30;;;;;;;14.47;6.00;;;19.40;75.40;;;;;;5053433;28;20450;-71
2021/08/15 04:52:57;;;;;;;8.17;6.23;;;19.40;75.50;;;;;;5053608;28;20469;-72
2021/08/15 04:55:25;;;;;;;11.30;6.40;;;19.40;75.40;;;;;;5053315;28;20974;-72
2021/08/15 04:57:52;;;;;;;10.93;6.47;;;19.40;75.30;;;;;;5053474;28;20823;-72
2021/08/15 05:00:19;;;;;;;9.10;7.17;;;19.50;75.50;;;;;;5053415;28;20461;-72
2021/08/15 05:02:46;;;;;;;7.30;4.80;;;19.50;75.40;;;;;;5053207;28;20950;-72
2021/08/15 05:05:12;;;;;;;8.60;7.33;;;19.50;75.30;;;;;;5053790;28;20441;-72
2021/08/15 05:07:39;;;;;;;7.87;5.80;;;19.50;75.10;;;;;;5053391;28;20461;-72
2021/08/15 05:10:07;;;;;;;6.90;5.73;;;19.60;75.10;;;;;;5053431;28;20446;-72
2021/08/15 05:12:35;;;;;;;9.43;5.70;;;19.70;74.90;;;;;;5053382;28;20847;-72
2021/08/15 05:15:02;;;;;;;6.30;5.70;;;19.70;74.70;;;;;;5053428;28;20872;-72
2021/08/15 05:17:28;;;;;;;11.23;5.73;;;19.80;74.60;;;;;;5053256;28;20480;-72
2021/08/15 05:19:55;;;;;;;10.40;6.00;;;19.80;74.50;;;;;;5053313;28;20449;-72
2021/08/15 05:22:22;;;;;;;12.67;5.90;;;19.80;74.40;;;;;;5053328;28;20449;-72
2021/08/15 05:24:48;;;;;;;10.90;5.73;;;19.90;74.40;;;;;;5053312;28;20445;-72
2021/08/15 05:27:15;;;;;;;9.90;6.37;;;19.90;73.80;;;;;;5052971;28;20850;-71
2021/08/15 05:29:43;;;;;;;9.80;6.27;;;19.90;73.30;;;;;;5052961;28;20952;-71
2021/08/15 05:32:10;;;;;;;10.20;6.40;;;20.00;73.40;;;;;;5052884;28;20485;-71
2021/08/15 05:34:37;;;;;;;7.53;5.63;;;19.90;73.40;;;;;;5056636;28;20441;-71
2021/08/15 05:37:04;;;;;;;11.53;5.70;;;19.90;73.80;;;;;;5057168;28;20469;-72
2021/08/15 05:39:30;;;;;;;11.00;7.00;;;19.90;73.80;;;;;;5058006;28;20806;-71
2021/08/15 05:41:57;;;;;;;7.87;5.33;;;19.90;73.90;;;;;;5058634;28;20441;-72
2021/08/15 05:44:24;;;;;;;11.97;6.53;;;19.90;73.90;;;;;;5058548;28;20445;-71
2021/08/15 05:46:52;;;;;;;7.67;5.90;;;20.00;74.30;;;;;;5057666;28;20472;-72
2021/08/15 05:49:18;;;;;;;9.70;6.27;;;20.00;74.20;;;;;;5057623;28;20460;-72
2021/08/15 05:51:45;;;;;;;8.97;5.70;;;20.00;74.10;;;;;;5057655;28;20444;-72
2021/08/15 05:54:12;;;;;;;8.00;5.57;;;20.10;74.30;;;;;;5057606;28;20434;-72
2021/08/15 05:56:38;;;;;;;10.50;5.53;;;20.20;74.00;;;;;;5057564;28;20462;-72
2021/08/15 05:59:05;;;;;;;8.37;5.20;;;20.20;74.20;;;;;;5057557;28;20453;-72
2021/08/15 06:01:33;;;;;;;9.20;5.93;;;20.30;74.40;;;;;;5057288;28;20454;-72
2021/08/15 06:04:02;;;;;;;7.20;6.13;;;20.30;73.50;;;;;;5057563;28;20453;-71
2021/08/15 06:06:28;;;;;;;8.10;6.10;;;20.40;73.40;;;;;;5057075;28;20469;-72
2021/08/15 06:08:55;;;;;;;8.43;5.97;;;20.30;73.20;;;;;;5057076;28;20449;-72
2021/08/15 06:11:22;;;;;;;9.40;6.13;;;20.40;73.50;;;;;;5057758;28;20453;-71
2021/08/15 06:13:50;;;;;;;11.15;6.30;;;20.40;74.00;;;;;;5056218;28;20509;-71
2021/08/15 06:16:17;;;;;;;8.13;6.00;;;20.50;74.10;;;;;;5057054;28;20566;-72
2021/08/15 06:18:43;;;;;;;9.43;5.30;;;20.50;73.70;;;;;;5056880;28;20439;-72
2021/08/15 06:21:11;;;;;;;10.17;5.70;;;20.60;74.20;;;;;;5057220;28;20517;-71
2021/08/15 06:23:38;;;;;;;9.73;6.00;;;20.70;74.50;;;;;;5057238;28;20448;-71
2021/08/15 06:26:05;;;;;;;10.00;5.70;;;20.70;74.80;;;;;;5057017;28;20798;-71
2021/08/15 06:28:32;;;;;;;6.53;5.33;;;20.80;74.60;;;;;;5056926;28;20508;-71
2021/08/15 06:30:59;;;;;;;10.53;6.07;;;20.90;74.90;;;;;;5057008;28;20924;-72
2021/08/15 06:33:27;;;;;;;9.90;6.60;;;21.00;73.60;;;;;;5056685;28;20488;-72
2021/08/15 06:35:54;;;;;;;7.20;5.77;;;21.10;73.90;;;;;;5056758;28;20441;-72
2021/08/15 06:38:23;;;;;;;10.23;6.40;;;21.10;73.70;;;;;;5056735;28;20476;-72
2021/08/15 06:40:49;;;;;;;9.77;5.63;;;21.20;73.50;;;;;;5056879;28;20436;-72
2021/08/15 06:43:17;;;;;;;9.17;5.67;;;21.20;73.70;;;;;;5056646;28;20415;-72
2021/08/15 06:45:45;;;;;;;7.10;4.70;;;21.30;73.40;;;;;;5055370;28;20947;-71
2021/08/15 06:48:12;;;;;;;8.67;5.10;;;21.30;72.60;;;;;;5056551;28;20493;-72
2021/08/15 06:50:39;;;;;;;6.57;5.17;;;21.40;71.60;;;;;;5056443;28;20445;-72
2021/08/15 06:53:06;;;;;;;11.60;5.47;;;21.50;71.50;;;;;;5055970;28;21033;-72
2021/08/15 06:55:34;;;;;;;7.93;5.77;;;21.50;71.20;;;;;;5056412;28;20453;-72
2021/08/15 06:58:01;;;;;;;9.37;5.10;;;21.60;70.80;;;;;;5056242;28;20472;-72
2021/08/15 07:00:28;;;;;;;6.47;5.37;;;21.60;70.30;;;;;;5055664;28;20473;-72
2021/08/15 07:02:55;;;;;;;9.97;5.47;;;21.70;70.40;;;;;;5056621;28;20434;-72
2021/08/15 07:05:21;;;;;;;11.37;5.67;;;21.80;70.40;;;;;;5056269;28;20437;-72
2021/08/15 07:07:48;;;;;;;8.27;5.60;;;21.80;70.10;;;;;;5056127;28;20470;-72
2021/08/15 07:10:15;;;;;;;11.07;5.07;;;21.90;69.70;;;;;;5056128;28;20429;-72
2021/08/15 07:12:43;;;;;;;6.73;4.77;;;22.00;69.60;;;;;;5055999;28;20481;-72
2021/08/15 07:15:11;;;;;;;9.20;5.67;;;22.10;69.10;;;;;;5056044;28;20430;-72
2021/08/15 07:17:40;;;;;;;6.13;5.10;;;22.20;69.10;;;;;;5056538;28;20466;-72
2021/08/15 07:20:09;;;;;;;7.20;5.03;;;22.30;69.00;;;;;;5055887;28;20446;-72
2021/08/15 07:22:35;;;;;;;9.60;4.33;;;22.40;68.40;;;;;;5056178;28;20445;-72
2021/08/15 07:25:03;;;;;;;8.10;5.00;;;22.50;67.60;;;;;;5055876;28;20445;-72
2021/08/15 07:27:30;;;;;;;6.93;5.33;;;22.60;67.60;;;;;;5055501;28;20976;-72
2021/08/15 07:29:58;;;;;;;5.37;4.30;;;22.70;67.60;;;;;;5056209;28;20448;-72
2021/08/15 07:32:25;;;;;;;7.63;4.70;;;22.80;67.50;;;;;;5055665;28;20854;-72
2021/08/15 07:34:52;;;;;;;5.30;4.03;;;23.00;66.80;;;;;;5055402;28;20442;-71
2021/08/15 07:37:18;;;;;;;4.50;3.60;;;23.20;66.70;;;;;;5055433;28;20476;-71
2021/08/15 07:39:45;;;;;;;6.73;4.40;;;23.40;66.00;;;;;;5055214;28;20441;-71
2021/08/15 07:42:12;;;;;;;6.37;3.93;;;23.60;65.70;;;;;;5054985;28;20491;-70
2021/08/15 07:44:39;;;;;;;4.80;4.00;;;23.80;65.40;;;;;;5055119;28;20453;-71
2021/08/15 07:47:07;;;;;;;7.27;4.50;;;23.90;64.50;;;;;;5054999;28;20469;-71
2021/08/15 07:49:34;;;;;;;8.83;4.27;;;24.00;63.90;;;;;;5054679;28;20964;-71
2021/08/15 07:52:00;;;;;;;5.77;3.90;;;24.10;63.60;;;;;;5054993;28;20507;-71
2021/08/15 07:54:27;;;;;;;8.43;4.87;;;24.30;63.50;;;;;;5054963;28;20481;-71
2021/08/15 07:56:54;;;;;;;5.30;3.77;;;24.40;64.30;;;;;;5054803;28;20481;-71
2021/08/15 07:59:20;;;;;;;5.10;3.70;;;24.60;63.40;;;;;;5054536;28;20457;-71
2021/08/15 08:01:50;;;;;;;5.83;3.87;;;24.80;62.50;;;;;;5054891;28;20441;-71
2021/08/15 08:04:18;;;;;;;7.70;4.00;;;25.00;61.70;;;;;;5054608;28;20962;-71
2021/08/15 08:06:44;;;;;;;8.13;3.90;;;25.20;60.80;;;;;;5054515;28;20476;-71
2021/08/15 08:09:11;;;;;;;5.00;3.17;;;25.40;59.90;;;;;;5054894;28;20426;-71
2021/08/15 08:11:38;;;;;;;4.10;3.30;;;25.60;59.20;;;;;;5054550;28;20449;-71
2021/08/15 08:14:05;;;;;;;9.83;4.00;;;25.90;59.20;;;;;;5054617;28;20869;-71
2021/08/15 08:16:31;;;;;;;6.63;3.20;;;26.10;58.00;;;;;;5054146;28;20466;-72
2021/08/15 08:18:58;;;;;;;6.90;3.70;;;26.40;57.10;;;;;;5054368;28;20449;-72
2021/08/15 08:21:26;;;;;;;9.53;3.47;;;26.70;55.90;;;;;;5054659;28;20453;-72
2021/08/15 08:23:53;;;;;;;5.10;3.13;;;27.00;55.30;;;;;;5054469;28;20452;-72
2021/08/15 08:26:20;;;;;;;6.93;3.53;;;27.30;52.70;;;;;;5054193;28;20936;-72
2021/08/15 08:28:46;;;;;;;5.07;3.53;;;27.50;53.50;;;;;;5054596;28;20475;-72
2021/08/15 08:31:13;;;;;;;4.07;3.67;;;27.70;53.20;;;;;;5054258;28;20449;-72
2021/08/15 08:33:40;;;;;;;7.40;3.40;;;27.90;53.30;;;;;;5054283;28;20472;-71
2021/08/15 08:36:06;;;;;;;6.27;2.97;;;28.10;52.80;;;;;;5054458;28;20437;-71
2021/08/15 08:38:35;;;;;;;10.10;3.53;;;28.30;51.80;;;;;;5054063;28;20449;-71
2021/08/15 08:41:03;;;;;;;5.13;3.60;;;28.30;51.00;;;;;;5054366;28;20449;-71
2021/08/15 08:43:31;;;;;;;13.30;4.20;;;28.20;51.70;;;;;;5054403;28;20433;-71
2021/08/15 08:45:59;;;;;;;4.50;3.57;;;28.20;52.50;;;;;;5054001;28;20792;-73
2021/08/15 08:48:26;;;;;;;5.97;3.63;;;28.20;52.40;;;;;;5053972;28;20469;-71
2021/08/15 08:50:52;;;;;;;5.57;4.00;;;28.30;51.80;;;;;;5053893;28;20495;-71
2021/08/15 08:53:20;;;;;;;7.17;2.90;;;28.20;49.60;;;;;;5053788;28;20477;-71
2021/08/15 08:55:48;;;;;;;7.07;3.30;;;28.20;50.90;;;;;;5053671;28;20434;-71
2021/08/15 08:58:15;;;;;;;5.40;3.60;;;28.20;50.50;;;;;;5053775;28;20473;-71
2021/08/15 09:00:42;;;;;;;7.33;2.97;;;28.10;50.50;;;;;;5053457;28;20461;-71
2021/08/15 09:03:08;;;;;;;8.80;3.90;;;28.00;51.10;;;;;;5053921;28;20442;-72
2021/08/15 09:05:36;;;;;;;10.77;3.53;;;28.00;52.20;;;;;;5053809;28;20445;-72
2021/08/15 09:08:04;;;;;;;14.63;3.73;;;28.10;53.10;;;;;;5053241;28;20461;-72
2021/08/15 09:10:33;;;;;;;5.80;3.50;;;28.20;52.00;;;;;;5053794;28;20449;-72
2021/08/15 09:13:05;;;;;;;10.47;3.93;;;28.20;52.40;;;;;;5053667;28;20480;-72
2021/08/15 09:15:32;;;;;;;5.00;3.13;;;28.10;51.60;;;;;;5053595;28;20499;-72
2021/08/15 09:17:59;;;;;;;6.57;4.00;;;28.20;52.10;;;;;;5053473;28;20469;-72
2021/08/15 09:20:38;;;;;;;5.47;3.40;;;28.30;50.10;;;;;;5053270;28;20940;-73
2021/08/15 09:23:22;;;;;;;5.67;3.20;;;28.40;50.90;;;;;;5053606;28;20508;-72
2021/08/15 09:26:19;;;;;;;6.00;3.43;;;28.50;50.50;;;;;;5053439;28;20434;-72
2021/08/15 09:28:49;;;;;;;5.40;3.10;;;28.50;50.40;;;;;;5053039;28;20811;-72
2021/08/15 09:31:28;;;;;;;5.17;3.33;;;28.50;50.80;;;;;;5053638;28;20438;-72
2021/08/15 09:33:56;;;;;;;3.53;3.20;;;28.40;50.20;;;;;;5053400;28;20461;-72
2021/08/15 09:36:33;;;;;;;5.03;2.97;;;28.40;50.80;;;;;;5053626;28;20444;-72
2021/08/15 09:39:02;;;;;;;7.90;2.93;;;28.50;50.30;;;;;;5053436;28;20932;-72
2021/08/15 09:41:31;;;;;;;8.10;3.30;;;28.70;50.60;;;;;;5053827;28;20441;-72
2021/08/15 09:44:19;;;;;;;3.77;2.50;;;28.80;50.50;;;;;;5053527;28;20425;-72
2021/08/15 09:47:10;;;;;;;3.70;2.90;;;29.10;49.30;;;;;;5053267;28;20476;-72
2021/08/15 09:49:42;;;;;;;5.63;2.90;;;29.30;49.40;;;;;;5053537;28;20426;-72
2021/08/15 09:52:10;;;;;;;6.97;2.80;;;29.40;49.20;;;;;;5053530;28;20436;-72
2021/08/15 09:54:38;;;;;;;4.63;3.20;;;29.60;47.00;;;;;;5053278;28;20896;-72
2021/08/15 09:57:09;;;;;;;5.23;2.83;;;29.70;49.40;;;;;;5053313;28;20469;-72
2021/08/15 09:59:39;;;;;;;4.80;3.20;;;29.80;46.70;;;;;;5053389;28;20492;-72
2021/08/15 10:02:07;;;;;;;4.00;2.90;;;29.70;45.90;;;;;;5053271;28;20445;-72
2021/08/15 10:04:34;;;;;;;4.00;2.53;;;29.50;46.00;;;;;;5052783;28;20817;-72
2021/08/15 10:07:02;;;;;;;8.20;3.43;;;29.40;48.80;;;;;;5053129;28;20472;-72
2021/08/15 10:09:30;;;;;;;4.63;3.03;;;29.40;46.80;;;;;;5053042;28;20437;-72
2021/08/15 10:11:58;;;;;;;5.80;3.30;;;29.40;45.50;;;;;;5053130;28;20437;-72
2021/08/15 10:14:24;;;;;;;8.90;3.17;;;29.50;46.50;;;;;;5052731;28;20509;-72
2021/08/15 10:16:57;;;;;;;6.97;3.57;;;29.60;48.00;;;;;;5052990;28;20466;-72
2021/08/15 10:19:32;;;;;;;6.77;3.30;;;29.80;47.70;;;;;;5053080;28;20432;-72
2021/08/15 10:22:00;;;;;;;3.93;2.70;;;30.00;46.80;;;;;;5056328;28;20793;-72
2021/08/15 10:24:42;;;;;;;8.30;3.63;;;30.20;46.10;;;;;;5056767;28;20448;-72
2021/08/15 10:27:09;;;;;;;6.90;3.40;;;30.60;43.60;;;;;;5058430;28;20523;-77
2021/08/15 10:29:43;;;;;;;9.73;3.83;;;31.10;45.30;;;;;;5058153;28;20454;-76
2021/08/15 10:32:19;;;;;;;5.63;3.00;;;31.50;42.10;;;;;;5060127;28;20513;-76
2021/08/15 10:35:13;;;;;;;3.40;3.10;;;31.60;41.70;;;;;;5059854;28;20555;-75
2021/08/15 10:37:39;;;;;;;4.60;3.43;;;31.60;41.90;;;;;;5057471;28;20489;-73
2021/08/15 10:40:07;;;;;;;4.17;3.10;;;31.80;41.90;;;;;;5056195;28;20445;-74
2021/08/15 10:42:47;;;;;;;5.00;3.77;;;32.20;39.50;;;;;;5056326;28;20440;-71
2021/08/15 10:45:22;;;;;;;6.17;3.50;;;32.40;39.20;;;;;;5056262;28;20475;-71
2021/08/15 10:48:24;;;;;;;4.93;3.57;;;32.40;39.20;;;;;;5056215;28;20487;-72
2021/08/15 10:50:52;;;;;;;5.80;3.40;;;32.40;37.70;;;;;;5056066;28;20444;-72
2021/08/15 10:53:38;;;;;;;6.20;3.80;;;32.30;38.00;;;;;;5055923;28;20457;-71
2021/08/15 10:56:07;;;;;;;8.07;3.30;;;32.40;37.70;;;;;;5055984;28;20444;-71
2021/08/15 10:58:36;;;;;;;4.40;3.10;;;32.70;36.70;;;;;;5055593;28;20476;-71
2021/08/15 11:01:03;;;;;;;4.87;3.60;;;33.00;37.30;;;;;;5055823;28;20489;-72
2021/08/15 11:03:37;;;;;;;7.53;3.73;;;33.20;37.40;;;;;;5055871;28;20449;-71
2021/08/15 11:06:05;;;;;;;5.80;3.40;;;33.70;36.10;;;;;;5055941;28;20425;-74
2021/08/15 11:08:51;;;;;;;5.10;3.27;;;34.30;35.00;;;;;;5055768;28;20456;-74
2021/08/15 11:11:25;;;;;;;8.90;3.47;;;34.30;31.90;;;;;;5055798;28;20440;-74
2021/08/15 11:14:27;;;;;;;4.10;3.50;;;34.10;33.80;;;;;;5055681;28;20465;-73
2021/08/15 11:16:56;;;;;;;4.93;3.63;;;34.40;33.30;;;;;;5056302;28;20475;-72
2021/08/15 11:19:31;;;;;;;6.50;3.70;;;34.60;32.30;;;;;;5056347;28;20452;-72
2021/08/15 11:22:08;;;;;;;8.77;3.70;;;34.10;33.20;;;;;;5056420;28;20421;-72
2021/08/15 11:24:36;;;;;;;5.00;3.53;;;33.20;34.60;;;;;;5055713;28;20524;-72
2021/08/15 11:27:04;;;;;;;6.77;3.50;;;33.00;37.40;;;;;;5055142;28;20508;-72
2021/08/15 11:29:33;;;;;;;5.47;3.27;;;32.90;36.00;;;;;;5055462;28;20443;-72
2021/08/15 11:32:00;;;;;;;4.27;3.80;;;33.00;35.80;;;;;;5055214;28;20449;-72
2021/08/15 11:34:28;;;;;;;5.10;3.90;;;33.00;36.00;;;;;;5055231;28;20480;-72
2021/08/15 11:36:56;;;;;;;3.80;3.43;;;33.60;36.60;;;;;;5055376;28;20461;-73
2021/08/15 11:39:30;;;;;;;5.33;3.93;;;34.30;33.80;;;;;;5055422;28;20434;-72
2021/08/15 11:41:57;;;;;;;6.47;3.90;;;34.70;33.40;;;;;;5055228;28;20429;-72
2021/08/15 11:44:24;;;;;;;4.43;4.03;;;35.20;33.30;;;;;;5055209;28;20448;-72
2021/08/15 11:46:52;;;;;;;4.70;3.40;;;35.80;31.30;;;;;;5054705;28;20989;-72
2021/08/15 11:49:34;;;;;;;4.70;4.20;;;36.30;29.70;;;;;;5054927;28;20448;-72
2021/08/15 11:52:13;;;;;;;10.13;9.13;;;36.70;29.40;;;;;;5054729;28;20819;-72
2021/08/15 11:54:40;;;;;;;10.87;5.70;;;37.10;29.20;;;;;;5054932;28;20556;-73
2021/08/15 11:57:10;;;;;;;5.97;4.00;;;37.40;28.30;;;;;;5054859;28;20556;-72
2021/08/15 11:59:38;;;;;;;4.90;4.40;;;37.70;29.20;;;;;;5054855;28;20214;-72
2021/08/15 12:02:13;;;;;;;6.37;4.77;;;37.90;28.60;;;;;;5054548;28;20199;-72
2021/08/15 12:04:40;;;;;;;66.97;61.77;;;37.90;27.20;;;;;;5054350;28;20186;-72
2021/08/15 12:07:07;;;;;;;52.47;48.43;;;37.80;28.40;;;;;;5054702;28;20225;-73
2021/08/15 12:09:33;;;;;;;52.07;48.13;;;37.50;26.50;;;;;;5054691;28;20214;-72
2021/08/15 12:12:04;;;;;;;9.40;8.07;;;36.70;28.20;;;;;;5054211;28;20931;-72
2021/08/15 12:14:36;;;;;;;6.80;4.07;;;36.00;29.10;;;;;;5054520;28;20467;-72
2021/08/15 12:17:04;;;;;;;5.80;4.30;;;35.70;30.00;;;;;;5054013;28;20465;-72
2021/08/15 12:19:33;;;;;;;10.87;4.60;;;35.70;30.30;;;;;;5054106;28;20479;-72
2021/08/15 12:22:02;;;;;;;7.60;4.07;;;35.80;30.30;;;;;;5054075;28;20935;-72
2021/08/15 12:24:30;;;;;;;12.83;4.27;;;35.80;30.90;;;;;;5054124;28;20981;-72
2021/08/15 12:26:59;;;;;;;6.03;4.03;;;35.50;30.20;;;;;;5054037;28;20467;-71
2021/08/15 12:29:29;;;;;;;6.40;4.03;;;35.50;30.90;;;;;;5053970;28;20510;-71
2021/08/15 12:32:08;;;;;;;3.87;3.20;;;35.50;31.20;;;;;;5054257;28;20425;-71
2021/08/15 12:34:39;;;;;;;5.63;4.20;;;35.30;31.40;;;;;;5054196;28;20464;-71
2021/08/15 12:37:17;;;;;;;6.20;3.67;;;35.50;31.70;;;;;;5054183;28;20476;-71
2021/08/15 12:39:45;;;;;;;3.73;3.20;;;35.90;30.30;;;;;;5054402;28;20433;-71
2021/08/15 12:42:20;;;;;;;8.60;4.07;;;36.60;31.10;;;;;;5053918;28;20437;-71
2021/08/15 12:44:58;;;;;;;10.93;3.57;;;37.00;29.40;;;;;;5054099;28;20428;-72
2021/08/15 12:47:27;;;;;;;5.77;3.13;;;37.20;28.40;;;;;;5053905;28;20468;-72